Time;durP1;ratioP1;P1;durP2;ratioP2;P2;SDS_P1;SDS_P2;PMS_P1;PMS_P2;Temp;Humidity;BMP_temperature;BMP_pressure;BME280_temperature;BME280_humidity;BME280_pressure;Samples;Min_cycle;Max_cycle;Signal;HPM_P1;HPM_P2
2021/05/27 00:00:11;;;;;;;23.27;4.35;;;10.80;99.90;;;;;;4966851;28;20062;-68
2021/05/27 00:02:37;;;;;;;24.70;4.65;;;10.80;99.90;;;;;;4969165;28;20067;-68
2021/05/27 00:05:05;;;;;;;22.35;5.32;;;10.70;99.90;;;;;;4969980;28;20061;-68
2021/05/27 00:07:31;;;;;;;16.98;3.70;;;10.70;99.90;;;;;;4971758;28;20039;-68
2021/05/27 00:09:56;;;;;;;16.80;4.85;;;10.70;99.90;;;;;;4969569;28;20042;-68
2021/05/27 00:12:22;;;;;;;21.85;4.63;;;10.80;99.90;;;;;;4971662;28;20043;-68
2021/05/27 00:14:48;;;;;;;16.80;4.82;;;10.70;99.90;;;;;;4970396;28;20402;-68
2021/05/27 00:17:15;;;;;;;26.70;5.60;;;10.70;99.90;;;;;;4971673;28;20606;-68
2021/05/27 00:19:41;;;;;;;18.90;4.00;;;10.70;99.90;;;;;;4967664;28;20039;-68
2021/05/27 00:22:07;;;;;;;15.93;4.00;;;10.70;99.90;;;;;;4969696;28;21433;-68
2021/05/27 00:24:32;;;;;;;14.70;3.85;;;10.70;99.90;;;;;;4971396;28;20042;-67
2021/05/27 00:26:58;;;;;;;15.98;3.88;;;10.70;99.90;;;;;;4971118;28;20038;-69
2021/05/27 00:29:23;;;;;;;19.20;5.70;;;10.70;99.90;;;;;;4971605;28;20137;-68
2021/05/27 00:31:49;;;;;;;17.30;4.22;;;10.70;99.90;;;;;;4971414;28;20089;-71
2021/05/27 00:34:15;;;;;;;16.00;4.40;;;10.70;99.90;;;;;;4971880;28;20117;-68
2021/05/27 00:36:40;;;;;;;15.30;5.30;;;10.70;99.90;;;;;;4968812;28;20524;-68
2021/05/27 00:39:06;;;;;;;19.23;3.90;;;10.70;99.90;;;;;;4970672;28;20281;-69
2021/05/27 00:41:31;;;;;;;20.25;3.83;;;10.60;99.90;;;;;;4973171;28;20121;-68
2021/05/27 00:43:57;;;;;;;16.80;4.47;;;10.60;99.90;;;;;;4972837;28;20392;-70
2021/05/27 00:46:22;;;;;;;14.65;4.35;;;10.60;99.90;;;;;;4988242;28;20125;-69
2021/05/27 00:48:58;;;;;;;19.98;4.57;;;10.60;99.90;;;;;;4969885;28;20054;-69
2021/05/27 00:51:25;;;;;;;13.57;3.92;;;10.50;99.90;;;;;;4985509;28;20062;-69
2021/05/27 00:53:51;;;;;;;18.85;4.65;;;10.50;99.90;;;;;;4971278;28;20038;-68
2021/05/27 00:56:17;;;;;;;20.02;4.20;;;10.50;99.90;;;;;;4970432;28;20088;-68
2021/05/27 00:58:44;;;;;;;20.45;5.00;;;10.50;99.90;;;;;;4970381;28;20058;-68
2021/05/27 01:01:10;;;;;;;26.25;5.15;;;10.50;99.90;;;;;;4970340;28;20046;-68
2021/05/27 01:03:35;;;;;;;15.57;4.47;;;10.50;99.90;;;;;;4970673;28;20035;-69
2021/05/27 01:06:01;;;;;;;20.15;4.20;;;10.50;99.90;;;;;;4970406;28;20042;-69
2021/05/27 01:08:29;;;;;;;22.48;5.13;;;10.50;99.90;;;;;;4969470;28;20043;-69
2021/05/27 01:10:55;;;;;;;15.45;4.80;;;10.40;99.90;;;;;;4986041;28;20629;-69
2021/05/27 01:13:21;;;;;;;22.48;4.72;;;10.40;99.90;;;;;;4968521;28;20126;-70
2021/05/27 01:15:48;;;;;;;11.45;3.90;;;10.40;99.90;;;;;;4985498;28;21003;-68
2021/05/27 01:18:19;;;;;;;12.38;4.38;;;10.40;99.90;;;;;;4969285;28;20497;-69
2021/05/27 01:20:50;;;;;;;18.85;4.20;;;10.40;99.90;;;;;;4970186;28;20030;-69
2021/05/27 01:23:16;;;;;;;19.75;5.22;;;10.40;99.90;;;;;;4969676;28;20037;-68
2021/05/27 01:25:50;;;;;;;17.17;4.15;;;10.40;99.90;;;;;;4970494;28;20027;-68
2021/05/27 01:28:16;;;;;;;20.90;4.50;;;10.40;99.90;;;;;;4967785;28;20045;-69
2021/05/27 01:30:43;;;;;;;24.65;4.18;;;10.40;99.90;;;;;;4970299;28;20027;-68
2021/05/27 01:33:10;;;;;;;14.43;5.38;;;10.40;99.90;;;;;;4969420;28;20031;-68
2021/05/27 01:35:36;;;;;;;22.10;5.80;;;10.30;99.90;;;;;;4966494;28;20430;-68
2021/05/27 01:38:11;;;;;;;16.25;5.03;;;10.30;99.90;;;;;;4968606;28;20038;-68
2021/05/27 01:40:37;;;;;;;22.30;4.63;;;10.40;99.90;;;;;;4966287;28;20046;-69
2021/05/27 01:43:03;;;;;;;24.52;4.53;;;10.30;99.90;;;;;;4969743;28;20030;-69
2021/05/27 01:45:28;;;;;;;21.17;5.00;;;10.30;99.90;;;;;;4969104;28;20398;-68
2021/05/27 01:47:55;;;;;;;17.67;5.00;;;10.30;99.90;;;;;;4969015;28;20035;-68
2021/05/27 01:50:21;;;;;;;14.20;4.28;;;10.30;99.90;;;;;;4971890;28;20034;-67
2021/05/27 01:52:47;;;;;;;23.75;4.93;;;10.30;99.90;;;;;;4965443;28;20030;-67
2021/05/27 01:55:13;;;;;;;15.23;4.35;;;10.30;99.90;;;;;;4968170;28;20031;-67
2021/05/27 01:57:39;;;;;;;29.73;5.43;;;10.30;99.90;;;;;;4968805;28;20411;-67
2021/05/27 02:00:06;;;;;;;21.50;5.30;;;10.30;99.90;;;;;;4969077;28;20038;-69
2021/05/27 02:02:31;;;;;;;25.77;4.40;;;10.20;99.90;;;;;;4969241;28;20034;-68
2021/05/27 02:04:57;;;;;;;21.08;5.03;;;10.20;99.90;;;;;;4969355;28;20054;-67
2021/05/27 02:07:23;;;;;;;19.40;3.90;;;10.20;99.90;;;;;;4968116;28;20035;-68
2021/05/27 02:09:48;;;;;;;14.77;4.63;;;10.20;99.90;;;;;;4966608;28;20407;-67
2021/05/27 02:12:14;;;;;;;24.45;4.70;;;10.20;99.90;;;;;;4967825;28;20031;-68
2021/05/27 02:14:40;;;;;;;20.20;4.38;;;10.20;99.90;;;;;;4969159;28;20402;-68
2021/05/27 02:17:06;;;;;;;21.50;4.55;;;10.30;99.90;;;;;;4969442;28;20038;-68
2021/05/27 02:19:31;;;;;;;17.70;4.90;;;10.30;99.90;;;;;;4968486;28;20041;-68
2021/05/27 02:21:57;;;;;;;16.80;4.43;;;10.20;99.90;;;;;;4968699;28;20054;-68
2021/05/27 02:24:22;;;;;;;19.33;4.53;;;10.20;99.90;;;;;;4967733;28;20377;-67
2021/05/27 02:26:48;;;;;;;16.42;3.90;;;10.20;99.90;;;;;;4967847;28;20035;-68
2021/05/27 02:29:14;;;;;;;17.10;3.83;;;10.20;99.90;;;;;;4966415;28;20035;-67
2021/05/27 02:31:40;;;;;;;22.38;4.80;;;10.30;99.90;;;;;;4968842;28;20447;-71
2021/05/27 02:34:05;;;;;;;24.55;4.75;;;10.30;99.90;;;;;;4968525;28;20535;-68
2021/05/27 02:36:31;;;;;;;21.23;5.07;;;10.20;99.90;;;;;;4975228;28;20043;-68
2021/05/27 02:38:57;;;;;;;13.90;3.80;;;10.20;99.90;;;;;;4982476;28;20039;-67
2021/05/27 02:41:23;;;;;;;22.85;4.60;;;10.20;99.90;;;;;;4969138;28;20054;-68
2021/05/27 02:43:50;;;;;;;16.67;4.18;;;10.20;99.90;;;;;;4968589;28;20062;-69
2021/05/27 02:46:16;;;;;;;21.15;3.67;;;10.10;99.90;;;;;;4968852;28;20537;-68
2021/05/27 02:48:41;;;;;;;17.25;4.72;;;10.20;99.90;;;;;;4968470;28;20046;-68
2021/05/27 02:51:07;;;;;;;22.75;5.22;;;10.20;99.90;;;;;;4974589;28;20062;-68
2021/05/27 02:53:32;;;;;;;13.35;3.88;;;10.10;99.90;;;;;;4965826;28;20042;-68
2021/05/27 02:55:58;;;;;;;15.88;4.38;;;10.10;99.90;;;;;;4968531;28;20155;-68
2021/05/27 02:58:24;;;;;;;21.92;4.95;;;10.10;99.90;;;;;;4968278;28;20038;-67
2021/05/27 03:00:49;;;;;;;20.95;4.78;;;10.10;99.90;;;;;;4968343;28;20026;-68
2021/05/27 03:03:21;;;;;;;19.88;3.58;;;10.00;99.90;;;;;;4968842;28;20031;-68
2021/05/27 03:05:50;;;;;;;12.82;3.72;;;10.00;99.90;;;;;;4983525;28;20613;-68
2021/05/27 03:08:16;;;;;;;15.27;4.82;;;10.10;99.90;;;;;;4966996;28;20079;-68
2021/05/27 03:10:42;;;;;;;12.52;3.28;;;10.10;99.90;;;;;;4968848;28;20557;-68
2021/05/27 03:13:08;;;;;;;16.10;4.18;;;10.00;99.90;;;;;;4968366;28;20035;-68
2021/05/27 03:15:35;;;;;;;18.10;4.32;;;10.00;99.90;;;;;;4968747;28;20463;-67
2021/05/27 03:18:05;;;;;;;19.55;3.65;;;10.10;99.90;;;;;;4967915;28;20507;-70
2021/05/27 03:20:32;;;;;;;18.42;3.92;;;10.10;99.90;;;;;;4965505;28;20041;-68
2021/05/27 03:22:57;;;;;;;18.85;3.40;;;10.00;99.90;;;;;;4968586;28;20035;-68
2021/05/27 03:25:23;;;;;;;22.02;3.83;;;10.00;99.90;;;;;;4968768;28;20550;-68
2021/05/27 03:27:49;;;;;;;18.75;3.50;;;10.00;99.90;;;;;;4969005;28;20042;-68
2021/05/27 03:30:16;;;;;;;15.90;4.03;;;10.10;99.90;;;;;;4977685;28;20031;-68
2021/05/27 03:32:41;;;;;;;17.52;4.32;;;10.10;99.90;;;;;;4969254;28;20124;-68
2021/05/27 03:35:10;;;;;;;15.45;4.15;;;10.10;99.90;;;;;;4965603;28;20133;-68
2021/05/27 03:37:36;;;;;;;20.00;4.20;;;10.00;99.90;;;;;;4966589;28;20038;-68
2021/05/27 03:40:13;;;;;;;15.45;4.10;;;10.00;99.90;;;;;;4971131;28;20031;-69
2021/05/27 03:42:46;;;;;;;26.50;4.38;;;10.10;99.90;;;;;;4969409;28;20043;-69
2021/05/27 03:45:14;;;;;;;22.13;3.83;;;10.00;99.90;;;;;;4970638;28;20125;-68
2021/05/27 03:47:40;;;;;;;17.52;3.20;;;10.00;99.90;;;;;;4971794;28;20038;-69
2021/05/27 03:50:09;;;;;;;16.00;3.72;;;10.00;99.90;;;;;;4986037;28;20774;-69
2021/05/27 03:52:36;;;;;;;14.88;4.10;;;10.00;99.90;;;;;;4972001;28;20089;-68
2021/05/27 03:55:03;;;;;;;19.33;4.07;;;10.00;99.90;;;;;;4970068;28;20534;-67
2021/05/27 03:57:29;;;;;;;22.70;3.63;;;10.00;99.90;;;;;;4968161;28;20483;-68
2021/05/27 04:02:45;;;;;;;12.65;3.83;;;10.00;99.90;;;;;;4965368;28;20038;-68
2021/05/27 04:07:56;;;;;;;15.57;4.07;;;9.90;99.90;;;;;;4970654;28;20042;-68
2021/05/27 04:10:23;;;;;;;23.65;4.15;;;10.00;99.90;;;;;;4971362;28;20027;-68
2021/05/27 04:12:49;;;;;;;16.60;3.60;;;9.90;99.90;;;;;;4971518;28;20161;-68
2021/05/27 04:15:32;;;;;;;15.63;4.43;;;10.00;99.90;;;;;;4970912;28;20106;-68
2021/05/27 04:18:16;;;;;;;12.00;3.80;;;10.00;99.90;;;;;;4971142;28;20039;-68
2021/05/27 04:20:54;;;;;;;16.23;3.95;;;10.00;99.90;;;;;;4990224;28;20495;-68
2021/05/27 04:23:35;;;;;;;20.67;3.53;;;10.00;99.90;;;;;;4974295;28;20054;-68
2021/05/27 04:26:14;;;;;;;13.55;3.90;;;10.00;99.90;;;;;;4981954;28;20554;-68
2021/05/27 04:28:42;;;;;;;18.48;4.50;;;10.00;99.90;;;;;;4974672;28;20058;-68
2021/05/27 04:31:13;;;;;;;16.85;3.60;;;10.00;99.90;;;;;;4973504;28;20062;-67
2021/05/27 04:33:39;;;;;;;;;;;10.00;99.90;;;;;;4972561;28;20039;-68
2021/05/27 04:36:06;;;;;;;21.55;4.13;;;10.10;99.90;;;;;;4972655;28;20328;-68
2021/05/27 04:38:32;;;;;;;17.20;3.75;;;10.00;99.90;;;;;;4973782;28;20066;-67
2021/05/27 04:40:58;;;;;;;11.82;4.00;;;10.00;99.90;;;;;;4973575;28;20383;-68
2021/05/27 04:43:24;;;;;;;14.57;4.20;;;10.10;99.90;;;;;;4973576;28;20035;-68
2021/05/27 04:45:49;;;;;;;18.70;3.70;;;10.00;99.90;;;;;;4974997;28;20493;-68
2021/05/27 04:48:16;;;;;;;23.73;3.60;;;10.10;99.90;;;;;;4975820;28;20035;-68
2021/05/27 04:50:44;;;;;;;19.55;4.22;;;10.10;99.90;;;;;;4979515;28;20126;-68
2021/05/27 04:53:10;;;;;;;19.10;4.35;;;10.10;99.90;;;;;;4976770;28;20090;-68
2021/05/27 04:55:36;;;;;;;13.40;3.40;;;10.10;99.90;;;;;;4974746;28;20079;-67
2021/05/27 04:58:03;;;;;;;17.02;2.85;;;10.10;99.90;;;;;;4973520;28;20349;-68
2021/05/27 05:00:29;;;;;;;21.80;4.57;;;10.10;99.90;;;;;;4988564;28;20510;-68
2021/05/27 05:02:58;;;;;;;18.13;4.05;;;10.10;99.90;;;;;;4962191;28;20031;-69
2021/05/27 05:05:26;;;;;;;13.75;4.65;;;10.20;99.90;;;;;;4967353;28;20491;-68
2021/05/27 05:07:52;;;;;;;16.48;3.83;;;10.20;99.90;;;;;;4977702;28;20050;-68
2021/05/27 05:10:20;;;;;;;14.75;3.90;;;10.20;99.90;;;;;;4972896;28;20402;-67
2021/05/27 05:12:46;;;;;;;12.30;3.10;;;10.20;99.90;;;;;;4975506;28;20038;-67
2021/05/27 05:15:27;;;;;;;18.15;3.67;;;10.20;99.90;;;;;;4974259;28;20039;-68
2021/05/27 05:17:59;;;;;;;18.85;4.38;;;10.20;99.90;;;;;;4965713;28;20564;-67
2021/05/27 05:20:27;;;;;;;11.43;3.70;;;10.20;99.90;;;;;;4978168;28;20078;-68
2021/05/27 05:22:54;;;;;;;17.40;3.92;;;10.20;99.90;;;;;;4975150;28;20042;-68
2021/05/27 05:25:20;;;;;;;25.88;4.97;;;10.30;99.90;;;;;;4977029;28;20499;-69
2021/05/27 05:27:46;;;;;;;18.38;3.63;;;10.20;99.90;;;;;;4971612;28;20027;-68
2021/05/27 05:30:13;;;;;;;13.15;3.28;;;10.20;99.90;;;;;;4972033;28;20050;-68
2021/05/27 05:32:39;;;;;;;21.92;4.75;;;10.20;99.90;;;;;;4976516;28;20039;-68
2021/05/27 05:35:07;;;;;;;16.63;3.63;;;10.30;99.90;;;;;;4973927;28;20035;-68
2021/05/27 05:37:33;;;;;;;13.50;3.13;;;10.20;99.90;;;;;;4974263;28;20705;-68
2021/05/27 05:39:58;;;;;;;17.38;4.10;;;10.30;99.90;;;;;;4988574;28;20031;-68
2021/05/27 05:42:24;;;;;;;16.13;3.28;;;10.30;99.90;;;;;;4977077;28;20049;-69
2021/05/27 05:44:50;;;;;;;16.92;4.05;;;10.30;99.90;;;;;;4981292;28;20034;-69
2021/05/27 05:47:15;;;;;;;14.85;3.83;;;10.30;99.90;;;;;;4969099;28;20038;-67
2021/05/27 05:49:41;;;;;;;21.30;3.55;;;10.20;99.90;;;;;;4977218;28;20771;-68
2021/05/27 05:52:07;;;;;;;14.10;3.38;;;10.20;99.90;;;;;;4982238;28;20049;-68
2021/05/27 05:54:32;;;;;;;13.63;3.17;;;10.20;99.90;;;;;;4976428;28;20038;-68
2021/05/27 05:56:58;;;;;;;16.55;3.22;;;10.20;99.90;;;;;;4977374;28;20041;-68
2021/05/27 05:59:23;;;;;;;15.45;4.05;;;10.20;99.90;;;;;;4977323;28;20034;-68
2021/05/27 06:01:50;;;;;;;17.02;3.42;;;10.20;99.90;;;;;;4966547;28;20049;-68
2021/05/27 06:04:15;;;;;;;17.15;3.95;;;10.30;99.90;;;;;;4974742;28;20047;-69
2021/05/27 06:06:41;;;;;;;17.83;3.95;;;10.30;99.90;;;;;;4975689;28;20069;-68
2021/05/27 06:09:06;;;;;;;16.23;4.07;;;10.30;99.90;;;;;;4975814;28;20034;-69
2021/05/27 06:11:32;;;;;;;18.73;4.05;;;10.40;99.90;;;;;;4974102;28;20066;-68
2021/05/27 06:13:58;;;;;;;22.13;3.58;;;10.40;99.90;;;;;;4979799;28;20034;-68
2021/05/27 06:16:23;;;;;;;12.38;3.40;;;10.40;99.90;;;;;;4996857;28;20479;-69
2021/05/27 06:18:49;;;;;;;17.08;4.13;;;10.40;99.90;;;;;;4971666;28;20031;-68
2021/05/27 06:21:14;;;;;;;15.50;4.00;;;10.50;99.90;;;;;;4968921;28;20031;-68
2021/05/27 06:23:40;;;;;;;12.90;3.50;;;10.40;99.90;;;;;;4971409;28;20031;-67
2021/05/27 06:26:05;;;;;;;12.82;3.17;;;10.40;99.90;;;;;;4971541;28;20031;-68
2021/05/27 06:28:31;;;;;;;20.73;3.63;;;10.40;99.90;;;;;;4976160;28;20081;-68
2021/05/27 06:30:57;;;;;;;19.13;4.05;;;10.40;99.90;;;;;;4983216;28;20030;-68
2021/05/27 06:33:23;;;;;;;11.73;3.33;;;10.40;99.90;;;;;;4973196;28;20764;-69
2021/05/27 06:35:49;;;;;;;13.50;3.90;;;10.40;99.90;;;;;;4978637;28;20031;-69
2021/05/27 06:38:15;;;;;;;11.30;3.65;;;10.50;99.90;;;;;;4972772;28;20035;-68
2021/05/27 06:40:41;;;;;;;13.57;2.90;;;10.50;99.90;;;;;;4971324;28;20046;-68
2021/05/27 06:43:07;;;;;;;11.98;2.92;;;10.50;99.90;;;;;;4970999;28;20197;-68
2021/05/27 06:45:33;;;;;;;18.88;3.10;;;10.50;99.90;;;;;;4968192;28;20102;-68
2021/05/27 06:47:59;;;;;;;14.05;2.97;;;10.50;99.90;;;;;;4973007;28;20038;-68
2021/05/27 06:50:40;;;;;;;19.35;3.63;;;10.50;99.90;;;;;;4995514;28;20049;-69
2021/05/27 06:53:06;;;;;;;;;;;10.50;99.90;;;;;;4969594;28;20129;-69
2021/05/27 06:55:33;;;;;;;12.52;3.65;;;10.50;99.90;;;;;;4973490;28;19926;-69
2021/05/27 06:57:59;;;;;;;13.73;3.15;;;10.50;99.90;;;;;;4967873;28;20042;-69
2021/05/27 07:00:25;;;;;;;16.92;4.45;;;10.60;99.90;;;;;;4987737;28;20038;-69
2021/05/27 07:02:52;;;;;;;9.43;3.08;;;10.50;99.90;;;;;;4976517;28;20034;-69
2021/05/27 07:05:18;;;;;;;16.27;3.97;;;10.50;99.90;;;;;;4972238;28;20035;-69
2021/05/27 07:07:44;;;;;;;17.50;4.03;;;10.50;99.90;;;;;;4969613;28;20039;-69
2021/05/27 07:10:10;;;;;;;17.70;5.05;;;10.40;99.90;;;;;;4974897;28;20035;-68
2021/05/27 07:12:35;;;;;;;16.63;3.60;;;10.40;99.90;;;;;;4971986;28;20071;-68
2021/05/27 07:15:02;;;;;;;15.50;4.20;;;10.40;99.90;;;;;;4972929;28;20105;-68
2021/05/27 07:17:27;;;;;;;21.15;3.80;;;10.50;99.90;;;;;;4975157;28;20050;-69
2021/05/27 07:19:54;;;;;;;13.25;3.38;;;10.40;99.90;;;;;;4974621;28;20031;-68
2021/05/27 07:22:20;;;;;;;20.05;3.22;;;10.50;99.90;;;;;;4973788;28;20027;-69
2021/05/27 07:24:47;;;;;;;15.23;3.88;;;10.50;99.90;;;;;;4972596;28;20937;-68
2021/05/27 07:27:13;;;;;;;19.02;4.38;;;10.50;99.90;;;;;;4970486;28;20031;-68
2021/05/27 07:29:39;;;;;;;18.48;3.63;;;10.60;99.90;;;;;;4974688;28;20043;-68
2021/05/27 07:32:07;;;;;;;22.23;3.83;;;10.60;99.90;;;;;;4974772;28;20033;-68
2021/05/27 07:34:34;;;;;;;16.48;4.47;;;10.60;99.90;;;;;;4987053;28;20047;-69
2021/05/27 07:37:00;;;;;;;14.50;3.60;;;10.70;99.90;;;;;;4977454;28;20049;-68
2021/05/27 07:39:25;;;;;;;21.23;3.63;;;10.80;99.90;;;;;;4973328;28;20050;-69
2021/05/27 07:41:52;;;;;;;17.02;3.42;;;10.80;99.90;;;;;;4976626;28;20042;-69
2021/05/27 07:44:18;;;;;;;16.27;3.40;;;10.80;99.90;;;;;;4970837;28;20041;-68
2021/05/27 07:46:44;;;;;;;16.05;3.35;;;10.80;99.90;;;;;;4969083;28;20145;-68
2021/05/27 07:49:09;;;;;;;15.45;3.30;;;10.80;99.90;;;;;;4973462;28;20057;-69
2021/05/27 07:51:35;;;;;;;13.07;3.45;;;10.90;99.90;;;;;;4973953;28;20097;-68
2021/05/27 07:54:00;;;;;;;11.07;2.63;;;11.00;99.90;;;;;;4972990;28;20039;-68
2021/05/27 07:56:26;;;;;;;16.13;2.70;;;11.00;99.90;;;;;;4967317;28;20043;-69
2021/05/27 07:58:51;;;;;;;15.73;3.05;;;11.00;99.90;;;;;;4970669;28;20035;-68
2021/05/27 08:01:17;;;;;;;12.27;2.78;;;10.90;99.90;;;;;;4980959;28;20035;-68
2021/05/27 08:03:43;;;;;;;10.02;2.70;;;11.00;99.90;;;;;;4974184;28;20031;-69
2021/05/27 08:06:08;;;;;;;15.18;2.67;;;11.00;99.90;;;;;;4969540;28;20046;-69
2021/05/27 08:08:34;;;;;;;8.52;2.63;;;11.00;99.90;;;;;;4974750;28;20062;-69
2021/05/27 08:11:00;;;;;;;8.73;2.65;;;11.00;99.90;;;;;;4971192;28;20046;-68
2021/05/27 08:13:25;;;;;;;25.90;4.30;;;11.10;99.90;;;;;;4967842;28;20705;-69
2021/05/27 08:15:51;;;;;;;7.82;2.47;;;11.10;99.90;;;;;;4974818;28;20093;-68
2021/05/27 08:18:16;;;;;;;14.48;2.45;;;11.10;99.90;;;;;;4973105;28;20037;-69
2021/05/27 08:20:42;;;;;;;11.35;2.60;;;11.10;99.90;;;;;;4972195;28;20034;-68
2021/05/27 08:23:07;;;;;;;13.77;3.05;;;11.10;99.90;;;;;;4969372;28;20042;-67
2021/05/27 08:25:33;;;;;;;17.42;3.85;;;11.10;99.90;;;;;;4978021;28;20580;-67
2021/05/27 08:27:59;;;;;;;16.55;3.10;;;11.00;99.90;;;;;;4985723;28;20038;-68
2021/05/27 08:30:24;;;;;;;11.10;2.33;;;11.00;99.90;;;;;;4978340;28;20246;-69
2021/05/27 08:32:50;;;;;;;12.35;3.58;;;11.00;99.90;;;;;;4976266;28;20034;-67
2021/05/27 08:35:16;;;;;;;10.55;2.65;;;11.00;99.90;;;;;;4977326;28;20134;-69
2021/05/27 08:37:41;;;;;;;18.80;3.17;;;11.00;99.90;;;;;;4969319;28;20034;-68
2021/05/27 08:40:08;;;;;;;12.50;2.13;;;11.00;99.90;;;;;;4971805;28;20183;-69
2021/05/27 08:42:35;;;;;;;14.93;4.13;;;11.00;99.90;;;;;;4987077;28;20034;-69
2021/05/27 08:45:03;;;;;;;22.70;4.95;;;11.00;99.90;;;;;;4974221;28;20382;-69
2021/05/27 08:47:29;;;;;;;13.52;2.95;;;11.10;99.90;;;;;;4990785;28;20069;-68
2021/05/27 08:49:55;;;;;;;14.77;3.42;;;11.10;99.90;;;;;;4972344;28;20070;-69
2021/05/27 08:52:21;;;;;;;16.42;3.22;;;11.20;99.90;;;;;;4973089;28;20117;-69
2021/05/27 08:54:47;;;;;;;15.10;3.97;;;11.20;99.90;;;;;;4977475;28;20475;-68
2021/05/27 08:57:12;;;;;;;12.73;2.85;;;11.20;99.90;;;;;;4974243;28;20030;-69
2021/05/27 08:59:38;;;;;;;14.30;3.35;;;11.20;99.90;;;;;;4967964;28;20038;-67
2021/05/27 09:02:07;;;;;;;18.25;2.95;;;11.20;99.90;;;;;;4973993;28;20034;-68
2021/05/27 09:04:33;;;;;;;10.85;1.98;;;11.20;99.90;;;;;;4967860;28;20123;-68
2021/05/27 09:07:00;;;;;;;17.13;3.13;;;11.30;99.90;;;;;;4968573;28;20480;-68
2021/05/27 09:09:48;;;;;;;9.85;2.08;;;11.30;99.90;;;;;;4967524;28;20074;-68
2021/05/27 09:12:27;;;;;;;19.88;3.47;;;11.20;99.90;;;;;;4975151;28;20169;-68
2021/05/27 09:14:52;;;;;;;15.45;3.83;;;11.20;99.90;;;;;;4971826;28;20422;-69
2021/05/27 09:17:18;;;;;;;11.30;2.33;;;11.20;99.90;;;;;;4983005;28;20038;-68
2021/05/27 09:19:44;;;;;;;10.52;2.70;;;11.30;99.90;;;;;;4970334;28;20073;-67
2021/05/27 09:22:21;;;;;;;10.38;3.08;;;11.20;99.90;;;;;;4981826;28;20042;-67
2021/05/27 09:24:47;;;;;;;22.50;3.83;;;11.30;99.90;;;;;;4968512;28;20066;-68
2021/05/27 09:27:13;;;;;;;12.68;3.35;;;11.20;99.90;;;;;;4960150;28;20550;-69
2021/05/27 09:29:46;;;;;;;12.52;3.33;;;11.20;99.90;;;;;;4957892;28;20055;-68
2021/05/27 09:32:12;;;;;;;26.02;3.17;;;11.20;99.90;;;;;;4965582;28;20026;-68
2021/05/27 09:34:42;;;;;;;17.85;3.28;;;11.30;99.90;;;;;;4961806;28;20388;-69
2021/05/27 09:37:20;;;;;;;11.77;3.58;;;11.50;99.90;;;;;;4970994;28;20426;-68
2021/05/27 09:39:47;;;;;;;11.00;3.22;;;11.60;99.90;;;;;;4958548;28;20130;-67
2021/05/27 09:42:13;;;;;;;20.10;2.75;;;11.70;99.90;;;;;;4981167;28;20057;-68
2021/05/27 09:44:39;;;;;;;19.85;2.88;;;11.70;99.90;;;;;;4966045;28;20490;-68
2021/05/27 09:47:06;;;;;;;12.80;3.08;;;11.70;99.90;;;;;;4968021;28;20042;-68
2021/05/27 09:49:33;;;;;;;10.45;2.67;;;11.70;99.90;;;;;;4968306;28;20045;-67
2021/05/27 09:52:14;;;;;;;34.00;4.78;;;11.60;99.90;;;;;;4964570;28;20089;-68
2021/05/27 09:54:54;;;;;;;11.85;2.67;;;11.50;99.90;;;;;;4963487;28;20039;-69
2021/05/27 09:57:24;;;;;;;23.15;3.10;;;11.50;99.90;;;;;;4968796;28;20213;-69
2021/05/27 09:59:51;;;;;;;11.60;2.58;;;11.50;99.90;;;;;;4962263;28;20427;-69
2021/05/27 10:02:18;;;;;;;12.32;2.38;;;11.50;99.90;;;;;;4964505;28;20285;-69
2021/05/27 10:04:56;;;;;;;9.50;2.30;;;11.60;99.90;;;;;;4966529;28;20405;-68
2021/05/27 10:07:44;;;;;;;14.88;2.90;;;11.60;99.90;;;;;;4961042;28;20043;-68
2021/05/27 10:10:10;;;;;;;9.18;2.63;;;11.60;99.90;;;;;;4963375;28;20118;-69
2021/05/27 10:12:42;;;;;;;14.18;2.70;;;11.60;99.90;;;;;;4964997;28;20065;-67
2021/05/27 10:15:11;;;;;;;17.63;2.80;;;11.50;99.90;;;;;;4963711;28;20118;-70
2021/05/27 10:17:37;;;;;;;19.02;3.03;;;11.50;99.90;;;;;;4964518;28;20154;-67
2021/05/27 10:20:11;;;;;;;16.30;3.00;;;11.50;99.90;;;;;;4964893;28;20069;-68
2021/05/27 10:22:38;;;;;;;15.52;2.65;;;11.50;99.90;;;;;;4962835;28;20106;-68
2021/05/27 10:25:09;;;;;;;14.85;3.42;;;11.50;99.90;;;;;;4959375;28;20430;-69
2021/05/27 10:27:35;;;;;;;15.30;3.60;;;11.50;99.90;;;;;;4953155;28;20042;-67
2021/05/27 10:30:06;;;;;;;24.77;4.22;;;11.50;99.90;;;;;;4968303;28;20047;-69
2021/05/27 10:32:37;;;;;;;13.98;2.65;;;11.50;99.90;;;;;;4964994;28;20058;-69
2021/05/27 10:35:04;;;;;;;17.70;3.53;;;11.50;99.90;;;;;;4968026;28;20035;-69
2021/05/27 10:37:37;;;;;;;15.80;3.58;;;11.50;99.90;;;;;;4963100;28;20043;-68
2021/05/27 10:40:12;;;;;;;22.73;3.92;;;11.40;99.90;;;;;;4969265;28;20050;-68
2021/05/27 10:42:56;;;;;;;20.77;3.30;;;11.40;99.90;;;;;;4967020;28;20105;-68
2021/05/27 10:45:32;;;;;;;16.75;3.25;;;11.40;99.90;;;;;;4972971;28;20042;-68
2021/05/27 10:48:13;;;;;;;19.02;3.50;;;11.40;99.90;;;;;;4970553;28;20049;-68
2021/05/27 10:51:06;;;;;;;17.63;3.75;;;11.50;99.90;;;;;;4969919;28;20129;-68
2021/05/27 10:53:38;;;;;;;22.75;4.25;;;11.40;99.90;;;;;;4968429;28;20039;-69
2021/05/27 10:56:07;;;;;;;15.18;3.47;;;11.40;99.90;;;;;;4964764;28;20043;-65
2021/05/27 10:58:53;;;;;;;16.08;2.88;;;11.40;99.90;;;;;;4965700;28;20069;-69
2021/05/27 11:01:37;;;;;;;14.57;4.00;;;11.30;99.90;;;;;;4964752;28;20053;-68
2021/05/27 11:04:26;;;;;;;15.25;2.85;;;11.30;99.90;;;;;;4967934;28;20429;-68
2021/05/27 11:07:11;;;;;;;11.57;2.65;;;11.30;99.90;;;;;;4960548;28;20126;-68
2021/05/27 11:09:38;;;;;;;8.48;2.63;;;11.30;99.90;;;;;;4967295;28;20035;-68
2021/05/27 11:12:16;;;;;;;15.20;2.72;;;11.30;99.90;;;;;;4974408;28;20545;-67
2021/05/27 11:14:52;;;;;;;11.15;2.78;;;11.40;99.90;;;;;;4966735;28;20125;-71
2021/05/27 11:17:20;;;;;;;12.18;2.60;;;11.50;99.90;;;;;;4971140;28;20042;-66
2021/05/27 11:19:59;;;;;;;13.68;3.15;;;11.80;99.90;;;;;;4968636;28;20042;-69
2021/05/27 11:22:34;;;;;;;10.57;3.17;;;12.20;99.90;;;;;;4969627;28;20225;-69
2021/05/27 11:25:09;;;;;;;12.20;2.30;;;12.60;99.90;;;;;;4965689;28;20100;-68
2021/05/27 11:27:36;;;;;;;19.40;1.90;;;12.90;99.90;;;;;;4964786;28;20035;-69
2021/05/27 11:30:40;;;;;;;13.43;1.95;;;13.30;99.90;;;;;;4968961;28;20134;-68
2021/05/27 11:33:07;;;;;;;12.10;2.53;;;13.70;99.90;;;;;;4973409;28;20049;-69
2021/05/27 11:35:41;;;;;;;11.38;2.30;;;13.80;99.90;;;;;;4970208;28;20046;-68
2021/05/27 11:38:19;;;;;;;12.10;2.63;;;13.80;99.90;;;;;;4965918;28;20132;-69
2021/05/27 11:40:50;;;;;;;14.02;2.28;;;13.80;99.90;;;;;;4976937;28;20031;-68
2021/05/27 11:43:18;;;;;;;9.32;2.17;;;13.60;99.90;;;;;;4967098;28;20039;-69
2021/05/27 11:45:52;;;;;;;9.43;1.67;;;13.40;99.90;;;;;;4971838;28;20666;-69
2021/05/27 11:48:30;;;;;;;8.73;1.95;;;13.20;99.90;;;;;;4963389;28;20034;-69
2021/05/27 11:51:14;;;;;;;16.77;2.53;;;13.00;99.90;;;;;;4967974;28;20478;-69
2021/05/27 11:53:51;;;;;;;7.53;1.85;;;12.90;99.90;;;;;;4963512;28;20036;-68
2021/05/27 11:56:46;;;;;;;16.88;2.40;;;12.70;99.90;;;;;;4969156;28;20502;-69
2021/05/27 11:59:26;;;;;;;10.73;2.10;;;12.70;99.90;;;;;;4966173;28;20041;-67
2021/05/27 12:01:54;;;;;;;12.25;1.83;;;12.60;99.90;;;;;;4970657;28;20051;-67
2021/05/27 12:04:30;;;;;;;12.52;2.15;;;12.60;99.90;;;;;;4972504;28;20093;-69
2021/05/27 12:07:11;;;;;;;11.02;2.38;;;12.70;99.90;;;;;;4981379;28;20038;-69
2021/05/27 12:09:49;;;;;;;9.88;1.98;;;12.80;99.90;;;;;;4984559;28;20323;-69
2021/05/27 12:12:24;;;;;;;6.72;1.20;;;12.80;99.90;;;;;;4983046;28;20046;-68
2021/05/27 12:14:56;;;;;;;12.65;1.60;;;12.80;99.90;;;;;;4979972;28;20403;-69
2021/05/27 12:17:26;;;;;;;11.18;2.08;;;12.70;99.90;;;;;;4984500;28;20034;-69
2021/05/27 12:19:57;;;;;;;12.85;2.03;;;12.50;99.90;;;;;;4973659;28;20137;-69
2021/05/27 12:22:23;;;;;;;8.73;1.55;;;12.30;99.90;;;;;;4968516;28;20042;-68
2021/05/27 12:25:08;;;;;;;9.95;1.20;;;12.30;99.90;;;;;;4969522;28;20815;-68
2021/05/27 12:27:44;;;;;;;8.27;1.15;;;12.40;99.90;;;;;;4965076;28;20046;-69
2021/05/27 12:30:12;;;;;;;6.32;1.17;;;12.70;99.90;;;;;;4967036;28;20038;-68
2021/05/27 12:32:43;;;;;;;5.03;1.25;;;12.80;99.90;;;;;;4967190;28;20035;-69
2021/05/27 12:35:18;;;;;;;10.18;1.40;;;12.90;99.90;;;;;;4970979;28;20043;-69
2021/05/27 12:37:48;;;;;;;5.60;0.95;;;13.00;99.90;;;;;;4970945;28;20432;-67
2021/05/27 12:40:22;;;;;;;5.77;1.20;;;13.00;99.90;;;;;;4970110;28;20140;-69
2021/05/27 12:42:48;;;;;;;5.95;1.10;;;13.30;99.90;;;;;;4985213;28;20043;-67
2021/05/27 12:45:38;;;;;;;6.53;1.08;;;13.40;99.90;;;;;;4985537;28;20035;-70
2021/05/27 12:48:14;;;;;;;9.93;0.50;;;13.60;99.90;;;;;;4968482;28;20596;-70
2021/05/27 12:50:43;;;;;;;3.85;0.70;;;13.70;99.90;;;;;;4969129;28;20042;-69